Time;durP1;ratioP1;P1;durP2;ratioP2;P2;SDS_P1;SDS_P2;PMS_P1;PMS_P2;Temp;Humidity;BMP_temperature;BMP_pressure;BME280_temperature;BME280_humidity;BME280_pressure;Samples;Min_cycle;Max_cycle;Signal;HPM_P1;HPM_P2
2023/05/23 00:01:30;;;;;;;;;3.67;2.33;;;;;23.99;36.92;101987.63;6304816;22;45248;-76
2023/05/23 00:03:56;;;;;;;;;4.33;3.67;;;;;24.04;36.88;101993.25;6304471;22;45309;-75
2023/05/23 00:06:21;;;;;;;;;4.33;4.33;;;;;24.00;36.89;101981.28;6304467;22;45348;-75
2023/05/23 00:08:47;;;;;;;;;4.33;3.00;;;;;23.99;36.83;101987.63;6304592;22;45334;-75
2023/05/23 00:11:12;;;;;;;;;6.00;4.00;;;;;24.02;36.52;102003.22;6303867;22;45316;-74
2023/05/23 00:13:38;;;;;;;;;1.00;1.00;;;;;23.85;36.64;101967.81;6304244;22;45290;-75
2023/05/23 00:16:04;;;;;;;;;4.33;4.33;;;;;23.96;36.96;101985.28;6304042;22;46895;-75
2023/05/23 00:18:30;;;;;;;;;4.00;4.00;;;;;23.86;36.82;101969.50;6304480;22;45277;-76
2023/05/23 00:20:56;;;;;;;;;4.67;3.67;;;;;23.89;37.13;101985.09;6304047;22;45312;-75
2023/05/23 00:23:24;;;;;;;;;4.00;4.00;;;;;23.93;36.83;101981.13;6304286;22;45224;-75
2023/05/23 00:25:51;;;;;;;;;3.67;2.67;;;;;23.52;36.66;101918.97;6303450;22;47346;-75
2023/05/23 00:28:17;;;;;;;;;4.67;3.33;;;;;23.96;36.84;101988.78;6303950;22;45375;-75
2023/05/23 00:30:42;;;;;;;;;2.00;2.00;;;;;23.95;36.71;101989.75;6304528;22;45300;-75
2023/05/23 00:33:08;;;;;;;;;1.67;1.67;;;;;23.85;36.62;101973.97;6304424;22;45470;-75
2023/05/23 00:35:33;;;;;;;;;3.00;3.00;;;;;23.93;36.59;101989.09;6304189;22;46176;-76
2023/05/23 00:38:01;;;;;;;;;5.00;3.33;;;;;23.83;36.35;101975.13;6304643;22;45261;-75
2023/05/23 00:40:26;;;;;;;;;3.00;3.00;;;;;23.93;36.73;101999.72;6303691;22;45585;-75
2023/05/23 00:42:52;;;;;;;;;3.33;3.33;;;;;23.58;36.42;101944.03;6304343;22;45280;-76
2023/05/23 00:45:17;;;;;;;;;3.00;3.00;;;;;23.92;36.38;101984.75;6304181;22;45276;-75
2023/05/23 00:47:43;;;;;;;;;2.67;2.67;;;;;23.82;36.63;101981.44;6304092;22;45302;-75
2023/05/23 00:50:11;;;;;;;;;4.33;3.33;;;;;23.80;36.52;101978.97;6304382;22;45276;-75
2023/05/23 00:52:38;;;;;;;;;4.00;4.00;;;;;23.21;36.13;101892.19;6304283;22;45336;-75
2023/05/23 00:55:04;;;;;;;;;3.00;3.00;;;;;23.78;36.43;101983.59;6303046;22;46389;-75
2023/05/23 00:57:33;;;;;;;;;5.00;3.67;;;;;23.87;36.25;102000.38;6303890;22;45303;-75
2023/05/23 00:59:59;;;;;;;;;3.67;2.00;;;;;23.73;36.33;101986.72;6303808;22;45166;-76
2023/05/23 01:02:24;;;;;;;;;5.67;3.33;;;;;23.84;36.38;101990.06;6303719;22;45415;-75
2023/05/23 01:04:53;;;;;;;;;4.00;3.00;;;;;23.75;36.23;101978.63;6303609;22;46016;-74
2023/05/23 01:07:22;;;;;;;;;3.67;3.67;;;;;23.89;36.08;101992.25;6304960;22;45304;-76
2023/05/23 01:09:48;;;;;;;;;3.00;3.00;;;;;23.77;36.36;101973.97;6305179;22;45343;-75
2023/05/23 01:12:28;;;;;;;;;2.00;2.00;;;;;23.90;36.33;101993.91;6305538;22;45416;-75
2023/05/23 01:15:03;;;;;;;;;4.67;4.00;;;;;23.93;36.44;101989.09;6303263;22;47374;-76
2023/05/23 01:17:41;;;;;;;;;3.33;3.00;;;;;23.87;36.15;101965.00;6303159;22;45305;-76
2023/05/23 01:20:13;;;;;;;;;2.00;2.00;;;;;23.93;36.36;101983.78;6305624;22;45296;-75
2023/05/23 01:22:59;;;;;;;;;4.00;4.00;;;;;23.95;36.12;101981.78;6305139;22;45407;-76
2023/05/23 01:25:27;;;;;;;;;4.33;3.00;;;;;23.95;36.45;101994.22;6304271;22;45356;-76
2023/05/23 01:27:56;;;;;;;;;7.00;4.33;;;;;23.95;36.12;101989.75;6304667;22;45169;-76
2023/05/23 01:30:23;;;;;;;;;2.33;2.00;;;;;23.91;36.17;101983.13;6305416;22;45361;-76
2023/05/23 01:32:52;;;;;;;;;3.00;3.00;;;;;23.88;36.15;101971.97;6305042;22;45439;-75
2023/05/23 01:35:25;;;;;;;;;6.00;3.33;;;;;23.95;36.02;101988.91;6304742;22;46207;-75
2023/05/23 01:37:52;;;;;;;;;6.33;3.33;;;;;23.87;36.21;101976.47;6304270;22;45289;-75
2023/05/23 01:40:17;;;;;;;;;2.33;2.00;;;;;23.93;35.82;101978.47;6305342;22;45225;-75
2023/05/23 01:42:42;;;;;;;;;1.00;1.00;;;;;23.92;35.89;101987.41;6305260;22;45427;-75
2023/05/23 01:45:09;;;;;;;;;5.33;3.33;;;;;23.90;36.08;101977.94;6304932;22;46862;-76
2023/05/23 01:47:35;;;;;;;;;4.67;2.67;;;;;23.94;36.07;101990.75;6304973;22;45220;-75
2023/05/23 01:50:01;;;;;;;;;3.00;3.00;;;;;23.89;35.95;101985.09;6305068;22;45209;-76
2023/05/23 01:52:27;;;;;;;;;4.00;2.33;;;;;23.91;36.20;101996.41;6304542;22;45411;-75
2023/05/23 01:54:55;;;;;;;;;3.33;3.33;;;;;23.82;36.29;101976.13;6304500;22;46867;-76
2023/05/23 01:57:21;;;;;;;;;3.67;3.67;;;;;23.90;36.14;102001.88;6303236;22;45515;-75
2023/05/23 01:59:47;;;;;;;;;6.67;4.00;;;;;23.87;36.16;101992.41;6304783;22;45295;-76
2023/05/23 02:02:12;;;;;;;;;4.67;4.67;;;;;23.89;36.31;101987.75;6304831;22;45404;-75
2023/05/23 02:04:37;;;;;;;;;7.00;3.00;;;;;23.79;36.09;101981.75;6304785;22;46490;-75
2023/05/23 02:07:03;;;;;;;;;0.00;0.00;;;;;23.89;36.10;102002.88;6304589;22;45228;-75
2023/05/23 02:09:28;;;;;;;;;4.33;3.33;;;;;23.89;36.33;101998.38;6304961;22;45264;-75
2023/05/23 02:11:54;;;;;;;;;5.33;4.67;;;;;23.81;36.04;101991.22;6305317;22;45356;-76
2023/05/23 02:14:20;;;;;;;;;3.33;3.33;;;;;23.84;36.33;102009.50;6304972;22;45445;-75
2023/05/23 02:16:45;;;;;;;;;2.33;2.33;;;;;23.80;36.43;102005.53;6304580;22;45214;-75
2023/05/23 02:19:10;;;;;;;;;4.67;4.00;;;;;23.85;35.90;102019.16;6304940;22;45205;-75
2023/05/23 02:21:37;;;;;;;;;4.67;4.00;;;;;23.90;36.00;102031.94;6304869;22;45426;-75
2023/05/23 02:24:02;;;;;;;;;3.33;3.33;;;;;23.86;36.35;102030.63;6305069;22;46079;-76
2023/05/23 02:26:28;;;;;;;;;4.33;4.33;;;;;23.88;36.61;102033.94;6302885;22;45266;-76
2023/05/23 02:28:53;;;;;;;;;3.00;3.00;;;;;23.86;36.27;102038.59;6303363;22;45458;-75
2023/05/23 02:31:19;;;;;;;;;4.00;3.00;;;;;23.91;36.43;102038.09;6304917;22;45283;-75
2023/05/23 02:33:44;;;;;;;;;6.00;4.00;;;;;23.91;36.64;102049.56;6304971;22;46134;-76
2023/05/23 02:36:10;;;;;;;;;4.00;4.00;;;;;23.90;36.51;102042.56;6304261;22;45277;-75
2023/05/23 02:38:35;;;;;;;;;5.00;5.00;;;;;23.92;36.46;102045.91;6305111;22;45266;-75
2023/05/23 02:41:00;;;;;;;;;5.00;4.00;;;;;23.92;36.53;102051.22;6305186;22;45402;-75
2023/05/23 02:43:26;;;;;;;;;4.00;4.00;;;;;23.93;36.37;102044.91;6304571;22;46240;-76
2023/05/23 02:45:51;;;;;;;;;3.67;3.67;;;;;23.85;36.32;102059.03;6304405;22;45344;-75
2023/05/23 02:48:17;;;;;;;;;4.67;4.00;;;;;23.87;36.37;102047.38;6304817;22;45440;-75
2023/05/23 02:50:42;;;;;;;;;3.00;3.00;;;;;23.90;36.40;102045.25;6304292;22;45302;-75
2023/05/23 02:53:08;;;;;;;;;5.00;5.00;;;;;23.77;36.41;102040.41;6304960;22;45340;-75
2023/05/23 02:55:33;;;;;;;;;7.00;4.67;;;;;23.80;36.47;102048.03;6304273;22;50342;-75
2023/05/23 02:57:58;;;;;;;;;7.00;5.00;;;;;23.88;36.26;102049.06;6305189;22;45325;-75
2023/05/23 03:00:24;;;;;;;;;3.67;3.33;;;;;23.83;36.39;102061.00;6304650;22;45180;-75
2023/05/23 03:02:50;;;;;;;;;5.67;5.33;;;;;23.85;36.68;102060.84;6304979;22;46143;-75
2023/05/23 03:05:15;;;;;;;;;5.67;4.33;;;;;23.83;36.43;102061.00;6304158;22;45632;-76
2023/05/23 03:07:41;;;;;;;;;6.00;5.33;;;;;23.81;36.58;102051.53;6304671;22;45300;-75
2023/05/23 03:10:07;;;;;;;;;4.75;4.75;;;;;23.83;36.34;102058.34;6304818;22;45443;-75
2023/05/23 03:12:32;;;;;;;;;4.00;3.67;;;;;23.77;36.50;102043.06;6304370;22;46792;-75
2023/05/23 03:14:58;;;;;;;;;5.00;3.00;;;;;23.74;36.48;102032.75;6304235;22;45364;-75
2023/05/23 03:17:24;;;;;;;;;6.25;5.00;;;;;23.82;36.91;102051.38;6305128;22;45313;-75
2023/05/23 03:19:50;;;;;;;;;5.00;4.00;;;;;23.73;36.54;102025.78;6304224;22;45331;-75
2023/05/23 03:22:15;;;;;;;;;4.33;4.00;;;;;23.82;36.42;102039.91;6304260;22;47087;-76
2023/05/23 03:24:40;;;;;;;;;6.50;4.25;;;;;23.84;37.12;102040.56;6302758;22;45379;-75
2023/05/23 03:27:06;;;;;;;;;5.75;5.00;;;;;23.85;36.43;102052.88;6302654;22;45644;-76
2023/05/23 03:29:31;;;;;;;;;5.00;5.00;;;;;23.76;36.89;102037.91;6304510;22;45291;-75
2023/05/23 03:31:57;;;;;;;;;5.33;5.33;;;;;23.85;36.75;102060.84;6304288;22;46368;-75
2023/05/23 03:34:22;;;;;;;;;6.25;5.25;;;;;23.84;36.82;102062.66;6304441;22;45269;-75
2023/05/23 03:36:48;;;;;;;;;4.50;3.50;;;;;23.85;37.02;102063.50;6304484;22;45260;-75
2023/05/23 03:39:13;;;;;;;;;5.33;5.00;;;;;23.81;36.70;102046.22;6304873;22;45549;-76
2023/05/23 03:41:39;;;;;;;;;6.25;6.25;;;;;23.87;36.96;102060.66;6304820;22;45257;-75
2023/05/23 03:44:04;;;;;;;;;6.00;5.33;;;;;23.81;36.93;102047.03;6304809;22;45313;-75
2023/05/23 03:46:30;;;;;;;;;4.00;4.00;;;;;23.73;36.49;102039.88;6304956;22;45226;-75
2023/05/23 03:48:55;;;;;;;;;7.25;5.75;;;;;23.84;36.93;102053.84;6303917;22;45433;-75
2023/05/23 03:51:23;;;;;;;;;6.33;6.00;;;;;23.76;36.76;102035.25;6304123;22;46467;-75
2023/05/23 03:53:48;;;;;;;;;7.25;6.00;;;;;23.89;36.77;102051.53;6304447;22;45284;-75
2023/05/23 03:56:13;;;;;;;;;5.50;5.50;;;;;23.91;36.83;102052.22;6302337;22;45211;-75
2023/05/23 03:58:38;;;;;;;;;4.00;4.00;;;;;23.63;36.63;102007.31;6304816;22;45542;-76
2023/05/23 04:01:04;;;;;;;;;5.00;5.00;;;;;23.86;36.50;102046.56;6304552;22;45295;-75
2023/05/23 04:03:31;;;;;;;;;7.00;6.00;;;;;23.76;36.69;102029.94;6303537;22;45514;-75
2023/05/23 04:05:58;;;;;;;;;4.00;4.00;;;;;23.90;36.91;102058.53;6305041;22;45293;-75
2023/05/23 04:08:23;;;;;;;;;4.75;3.50;;;;;23.87;36.79;102050.03;6304125;22;45427;-76
2023/05/23 04:10:49;;;;;;;;;1.00;1.00;;;;;23.60;36.61;101999.69;6302397;22;46020;-76
2023/05/23 04:13:14;;;;;;;;;6.00;6.00;;;;;23.94;36.83;102053.72;6304031;22;45225;-75
2023/05/23 04:15:41;;;;;;;;;4.67;4.33;;;;;23.62;36.76;102000.34;6303973;22;45423;-72
2023/05/23 04:18:08;;;;;;;;;8.50;7.50;;;;;23.87;37.00;102037.59;6303772;22;45181;-73
2023/05/23 04:20:33;;;;;;;;;5.25;5.25;;;;;23.96;36.79;102052.56;6304149;22;46390;-75
2023/05/23 04:22:59;;;;;;;;;7.00;7.00;;;;;23.92;36.83;102050.38;6302401;22;45340;-81
2023/05/23 04:25:25;;;;;;;;;8.75;7.00;;;;;23.95;36.78;102058.03;6304788;22;45269;-75
2023/05/23 04:27:50;;;;;;;;;5.00;3.50;;;;;23.92;37.04;102050.38;6302691;22;45194;-76
2023/05/23 04:30:17;;;;;;;;;7.25;6.25;;;;;23.80;37.25;102034.75;6303666;22;45305;-77
2023/05/23 04:32:42;;;;;;;;;6.00;6.00;;;;;23.95;36.96;102058.03;6301982;22;45262;-77
2023/05/23 04:35:08;;;;;;;;;5.75;5.75;;;;;23.98;36.93;102054.22;6304163;22;45329;-75
2023/05/23 04:37:34;;;;;;;;;6.67;6.67;;;;;23.99;37.09;102062.03;6301931;22;45255;-75
2023/05/23 04:39:59;;;;;;;;;9.50;7.50;;;;;24.01;37.58;102064.53;6303578;22;46921;-78
2023/05/23 04:42:25;;;;;;;;;8.50;5.50;;;;;23.94;37.53;102053.72;6304198;22;45255;-75
2023/05/23 04:44:51;;;;;;;;;9.33;5.00;;;;;24.02;37.26;102060.88;6304029;22;45393;-73
2023/05/23 04:47:17;;;;;;;;;8.75;8.25;;;;;24.00;37.60;102069.00;6304247;22;45592;-74
2023/05/23 04:49:43;;;;;;;;;7.00;6.25;;;;;24.03;37.33;102067.84;6304221;22;45981;-75
2023/05/23 04:52:09;;;;;;;;;6.00;6.00;;;;;23.94;37.57;102059.84;6305294;22;45300;-75
2023/05/23 04:54:36;;;;;;;;;9.50;7.00;;;;;23.95;37.53;102064.19;6303334;22;45321;-74
2023/05/23 04:57:01;;;;;;;;;6.50;6.00;;;;;23.97;37.48;102064.00;6304854;22;45363;-74
2023/05/23 04:59:27;;;;;;;;;8.00;7.00;;;;;24.02;37.22;102079.50;6305052;22;45396;-74
2023/05/23 05:01:52;;;;;;;;;7.00;6.00;;;;;24.01;37.27;102080.47;6304477;22;45224;-72
2023/05/23 05:04:17;;;;;;;;;7.50;6.50;;;;;23.91;37.54;102065.50;6304861;22;45303;-75
2023/05/23 05:06:43;;;;;;;;;7.50;7.00;;;;;23.87;37.48;102061.50;6305045;22;45190;-75
2023/05/23 05:09:08;;;;;;;;;7.75;5.25;;;;;23.98;37.31;102081.63;6305349;22;45248;-75
2023/05/23 05:11:33;;;;;;;;;7.50;7.50;;;;;23.89;37.48;102072.00;6305022;22;45229;-75
2023/05/23 05:13:59;;;;;;;;;9.75;6.50;;;;;23.89;37.37;102079.97;6305616;22;45192;-75
2023/05/23 05:16:25;;;;;;;;;7.00;7.00;;;;;23.82;37.31;102077.94;6302980;22;45227;-75
2023/05/23 05:18:50;;;;;;;;;7.75;7.25;;;;;23.77;37.42;102074.09;6304868;22;46848;-75
2023/05/23 05:21:15;;;;;;;;;10.50;9.00;;;;;23.80;37.78;102084.41;6305002;22;45134;-75
2023/05/23 05:23:41;;;;;;;;;7.50;6.50;;;;;23.80;37.30;102092.38;6305117;22;45214;-76
2023/05/23 05:26:07;;;;;;;;;6.75;6.75;;;;;23.72;37.71;102080.75;6304764;22;45581;-75
2023/05/23 05:28:32;;;;;;;;;7.00;5.00;;;;;23.76;37.83;102083.09;6304940;22;46944;-75
2023/05/23 05:30:57;;;;;;;;;6.75;6.75;;;;;23.75;37.71;102079.59;6302725;22;45365;-75
2023/05/23 05:33:23;;;;;;;;;8.67;8.33;;;;;23.79;37.43;102091.56;6305585;22;45298;-75
2023/05/23 05:35:52;;;;;;;;;10.50;8.25;;;;;23.80;37.44;102100.34;6304966;22;45459;-75
2023/05/23 05:38:17;;;;;;;;;5.75;5.75;;;;;23.78;37.71;102110.31;6304581;22;46165;-75
2023/05/23 05:40:43;;;;;;;;;3.67;3.00;;;;;23.77;38.00;102117.47;6305260;22;45271;-75
2023/05/23 05:43:09;;;;;;;;;5.33;5.33;;;;;23.77;37.77;102106.84;6305376;22;45614;-76
2023/05/23 05:45:35;;;;;;;;;8.75;7.00;;;;;23.70;37.66;102097.84;6305126;22;45276;-76
2023/05/23 05:48:00;;;;;;;;;8.50;7.75;;;;;23.73;37.61;102111.63;6304751;22;45905;-75
2023/05/23 05:50:25;;;;;;;;;8.00;6.00;;;;;23.68;37.85;102124.56;6304583;22;45280;-75
2023/05/23 05:52:50;;;;;;;;;6.67;6.00;;;;;23.67;38.22;102117.59;6305139;22;45253;-75
2023/05/23 05:55:16;;;;;;;;;6.00;5.25;;;;;23.55;37.74;102102.94;6305161;22;49986;-75
2023/05/23 05:57:41;;;;;;;;;8.75;7.50;;;;;23.57;38.21;102103.59;6302919;22;46149;-74
2023/05/23 06:00:13;;;;;;;;;10.50;7.75;;;;;23.59;37.66;102129.03;6304776;22;45478;-75
2023/05/23 06:02:40;;;;;;;;;8.75;7.25;;;;;23.58;38.10;102134.47;6305476;22;45418;-77
2023/05/23 06:05:06;;;;;;;;;7.25;6.50;;;;;23.52;38.39;102135.97;6304543;22;45256;-75
2023/05/23 06:07:34;;;;;;;;;9.25;6.75;;;;;23.51;38.23;102139.59;6304657;22;46832;-75
2023/05/23 06:10:00;;;;;;;;;7.50;6.25;;;;;23.27;38.26;102117.19;6304528;22;45327;-76
2023/05/23 06:12:25;;;;;;;;;6.00;6.00;;;;;23.46;38.17;102147.19;6305158;22;45230;-75
2023/05/23 06:14:50;;;;;;;;;11.75;7.00;;;;;23.40;38.00;102136.19;6304793;22;45646;-74
2023/05/23 06:17:16;;;;;;;;;7.00;4.50;;;;;23.21;38.14;102125.81;6304544;22;46411;-78
2023/05/23 06:19:41;;;;;;;;;10.00;7.25;;;;;23.35;38.17;102135.00;6305168;22;45323;-76
2023/05/23 06:22:06;;;;;;;;;7.00;7.00;;;;;23.20;38.10;102124.13;6304945;22;45340;-76
2023/05/23 06:24:32;;;;;;;;;12.25;7.00;;;;;23.38;38.27;102150.63;6305190;22;45253;-75
2023/05/23 06:26:57;;;;;;;;;11.00;7.75;;;;;23.35;38.13;102156.25;6304769;22;46037;-75
2023/05/23 06:29:22;;;;;;;;;7.25;6.50;;;;;23.27;38.71;102144.59;6304573;22;45309;-75
2023/05/23 06:31:47;;;;;;;;;10.00;7.75;;;;;23.33;38.90;102153.75;6305237;22;45264;-75
2023/05/23 06:34:13;;;;;;;;;6.75;5.75;;;;;23.31;38.36;102157.56;6304856;22;45289;-75
2023/05/23 06:36:38;;;;;;;;;7.00;6.25;;;;;22.96;39.06;102111.41;6304081;22;46107;-78
2023/05/23 06:39:03;;;;;;;;;7.75;6.50;;;;;23.25;38.66;102161.69;6304139;22;45214;-73
2023/05/23 06:41:29;;;;;;;;;11.00;6.75;;;;;23.04;38.99;102131.84;6304833;22;45262;-77
2023/05/23 06:43:54;;;;;;;;;7.00;6.00;;;;;23.24;39.04;102166.16;6302558;22;45442;-76
2023/05/23 06:46:19;;;;;;;;;10.75;7.25;;;;;23.11;38.96;102134.69;6304747;22;46042;-75
2023/05/23 06:48:45;;;;;;;;;9.50;9.50;;;;;23.27;38.51;102163.19;6305017;22;45244;-75
2023/05/23 06:51:10;;;;;;;;;8.00;8.00;;;;;23.29;38.62;102161.19;6304972;22;45241;-76
2023/05/23 06:53:35;;;;;;;;;10.00;7.50;;;;;23.31;38.86;102161.06;6304736;22;45310;-76
2023/05/23 06:56:01;;;;;;;;;5.75;5.75;;;;;23.02;38.51;102117.06;6304500;22;46099;-75
2023/05/23 06:58:26;;;;;;;;;6.50;6.00;;;;;23.31;38.93;102170.84;6304510;22;45198;-75
2023/05/23 07:00:51;;;;;;;;;8.75;7.00;;;;;23.30;39.11;102162.03;6305113;22;45245;-75
2023/05/23 07:03:17;;;;;;;;;7.00;5.75;;;;;23.37;38.42;102179.00;6305002;22;45303;-76
2023/05/23 07:05:43;;;;;;;;;8.00;7.50;;;;;23.37;38.53;102165.72;6304272;22;47025;-75
2023/05/23 07:08:09;;;;;;;;;6.50;6.25;;;;;23.39;38.89;102177.03;6305026;22;45240;-76
2023/05/23 07:10:35;;;;;;;;;7.50;6.25;;;;;23.41;38.60;102179.53;6305075;22;45310;-75
2023/05/23 07:13:00;;;;;;;;;6.75;6.25;;;;;23.44;38.95;102178.38;6304053;22;45449;-76
2023/05/23 07:15:26;;;;;;;;;10.33;6.00;;;;;23.45;38.62;102169.41;6304369;22;46165;-75
2023/05/23 07:17:51;;;;;;;;;7.00;7.00;;;;;23.47;38.58;102178.88;6304385;22;52170;-75
2023/05/23 07:20:16;;;;;;;;;7.25;6.00;;;;;23.23;38.68;102143.25;6304670;22;45312;-76
2023/05/23 07:22:42;;;;;;;;;8.00;8.00;;;;;23.49;38.21;102187.59;6304517;22;45181;-75
2023/05/23 07:25:08;;;;;;;;;7.33;6.67;;;;;23.49;38.30;102189.38;6304650;22;45921;-75
2023/05/23 07:27:33;;;;;;;;;11.25;7.50;;;;;23.47;38.85;102188.72;6304099;22;45260;-76
2023/05/23 07:29:59;;;;;;;;;6.50;6.50;;;;;23.47;38.82;102164.81;6304937;22;45311;-75
2023/05/23 07:32:24;;;;;;;;;7.50;6.25;;;;;23.51;38.51;102187.41;6304555;22;45466;-76
2023/05/23 07:34:49;;;;;;;;;8.50;5.25;;;;;23.47;38.43;102191.38;6304628;22;46204;-75
2023/05/23 07:37:14;;;;;;;;;8.50;8.00;;;;;23.47;38.23;102194.81;6304538;22;45332;-76
2023/05/23 07:39:40;;;;;;;;;7.50;6.00;;;;;23.51;38.12;102193.56;6304878;22;45197;-75
2023/05/23 07:42:06;;;;;;;;;10.50;8.25;;;;;23.52;38.20;102184.59;6302494;22;45400;-75
2023/05/23 07:44:31;;;;;;;;;8.75;7.25;;;;;23.46;38.30;102173.75;6304661;22;45201;-75
2023/05/23 07:46:56;;;;;;;;;7.00;7.00;;;;;23.57;37.71;102178.84;6304632;22;45244;-76
2023/05/23 07:49:22;;;;;;;;;9.75;8.00;;;;;23.58;38.16;102183.13;6304912;22;45328;-76
2023/05/23 07:51:47;;;;;;;;;6.75;5.25;;;;;23.70;38.00;102181.06;6304742;22;45310;-75
2023/05/23 07:54:12;;;;;;;;;6.00;6.00;;;;;23.75;37.72;102185.88;6303994;22;50188;-75
2023/05/23 07:56:38;;;;;;;;;8.25;6.50;;;;;23.81;37.51;102192.38;6303858;22;45697;-76
2023/05/23 07:59:04;;;;;;;;;8.00;7.25;;;;;23.88;37.36;102192.56;6304672;22;45229;-76
2023/05/23 08:01:30;;;;;;;;;8.75;7.25;;;;;23.79;37.38;102191.69;6304265;22;45440;-75
2023/05/23 08:03:55;;;;;;;;;7.75;5.50;;;;;23.92;37.42;102205.38;6304044;22;46760;-76
2023/05/23 08:06:21;;;;;;;;;9.33;7.00;;;;;23.95;37.11;102202.41;6304012;22;45727;-75
2023/05/23 08:08:46;;;;;;;;;8.00;7.00;;;;;23.99;37.23;102215.38;6304844;22;45291;-75
2023/05/23 08:11:11;;;;;;;;;6.25;6.25;;;;;23.91;37.05;102186.94;6304182;22;45221;-76
2023/05/23 08:13:37;;;;;;;;;10.00;8.00;;;;;24.02;37.13;102210.56;6303806;22;45884;-75
2023/05/23 08:16:02;;;;;;;;;9.25;6.50;;;;;24.01;37.03;102200.94;6304028;22;45356;-75
2023/05/23 08:18:29;;;;;;;;;9.33;6.67;;;;;24.07;36.63;102199.47;6304479;22;45274;-75
2023/05/23 08:20:55;;;;;;;;;11.00;9.67;;;;;23.89;37.06;102179.13;6304475;22;45280;-75
2023/05/23 08:23:20;;;;;;;;;7.00;7.00;;;;;24.06;36.63;102195.97;6304367;22;45285;-76
2023/05/23 08:25:45;;;;;;;;;7.00;7.00;;;;;24.09;36.69;102204.63;6303740;22;45256;-75
2023/05/23 08:28:11;;;;;;;;;6.00;5.00;;;;;24.12;36.71;102191.84;6304138;22;45241;-76
2023/05/23 08:30:36;;;;;;;;;7.00;6.00;;;;;24.20;36.65;102206.97;6304576;22;45107;-76
2023/05/23 08:33:03;;;;;;;;;5.67;5.67;;;;;24.25;36.17;102214.47;6302115;22;46093;-76
2023/05/23 08:35:33;;;;;;;;;6.50;6.50;;;;;24.29;36.39;102222.00;6304003;22;45389;-75
2023/05/23 08:38:00;;;;;;;;;7.25;7.00;;;;;24.35;36.48;102217.00;6303827;22;45180;-76
2023/05/23 08:40:28;;;;;;;;;7.75;7.75;;;;;24.26;36.18;102193.06;6303519;22;45559;-75
2023/05/23 08:42:53;;;;;;;;;5.75;5.75;;;;;24.33;35.90;102193.22;6303492;22;46929;-75
2023/05/23 08:45:19;;;;;;;;;7.67;7.67;;;;;24.41;36.24;102211.03;6303693;22;45300;-75
2023/05/23 08:47:45;;;;;;;;;6.00;6.00;;;;;24.44;35.93;102217.84;6304340;22;45246;-75
2023/05/23 08:50:13;;;;;;;;;10.00;8.00;;;;;24.46;35.38;102216.69;6304158;22;45316;-76
2023/05/23 08:52:56;;;;;;;;;7.33;6.67;;;;;24.47;35.48;102213.03;6303469;22;46469;-76
2023/05/23 08:55:25;;;;;;;;;7.00;6.67;;;;;24.48;35.63;102212.06;6303838;22;45384;-75
2023/05/23 08:57:51;;;;;;;;;6.33;5.33;;;;;24.50;35.40;102202.09;6303494;22;45258;-75
2023/05/23 09:00:18;;;;;;;;;5.00;5.00;;;;;24.41;35.21;102205.72;6303780;22;45583;-76
2023/05/23 09:02:44;;;;;;;;;7.75;7.50;;;;;24.52;35.37;102208.06;6303435;22;46105;-75
2023/05/23 09:05:10;;;;;;;;;6.75;6.50;;;;;24.51;35.31;102202.91;6303299;22;45264;-75
2023/05/23 09:07:36;;;;;;;;;6.67;6.33;;;;;24.48;35.28;102189.94;6303658;22;45313;-75
2023/05/23 09:10:04;;;;;;;;;10.67;6.00;;;;;24.54;35.03;102191.13;6304123;22;45317;-76
2023/05/23 09:12:29;;;;;;;;;7.33;7.00;;;;;24.56;35.01;102197.94;6303413;22;47182;-75
2023/05/23 09:14:55;;;;;;;;;10.50;5.50;;;;;24.59;35.09;102194.13;6303695;22;45570;-76
2023/05/23 09:17:21;;;;;;;;;5.00;5.00;;;;;24.60;34.99;102214.38;6304235;22;45171;-75
2023/05/23 09:19:47;;;;;;;;;6.75;5.50;;;;;24.56;35.06;102197.94;6303673;22;45210;-76
2023/05/23 09:22:12;;;;;;;;;6.25;5.00;;;;;24.53;35.39;102190.28;6302768;22;46595;-76
2023/05/23 09:24:38;;;;;;;;;7.00;6.75;;;;;24.51;34.93;102179.78;6303923;22;45317;-77
2023/05/23 09:27:05;;;;;;;;;8.33;7.33;;;;;24.59;35.19;102175.50;6304567;22;45288;-75
2023/05/23 09:29:31;;;;;;;;;7.00;6.00;;;;;24.65;34.82;102181.97;6305672;22;45292;-75
2023/05/23 09:32:09;;;;;;;;;7.00;6.33;;;;;24.70;34.87;102203.59;6304769;22;46095;-76
2023/05/23 09:34:35;;;;;;;;;7.50;6.50;;;;;24.68;34.65;102209.09;6304908;22;45200;-76
2023/05/23 09:37:00;;;;;;;;;5.00;5.00;;;;;24.69;34.55;102197.44;6304710;22;45209;-75
2023/05/23 09:39:26;;;;;;;;;4.00;4.00;;;;;24.69;34.62;102200.13;6305483;22;45237;-75
2023/05/23 09:41:51;;;;;;;;;4.33;2.67;;;;;24.65;34.44;102192.59;6304966;22;46097;-75
2023/05/23 09:44:22;;;;;;;;;5.50;5.50;;;;;24.58;33.98;102182.63;6305405;22;45286;-75
2023/05/23 09:46:51;;;;;;;;;5.67;4.33;;;;;24.60;34.63;102185.13;6305035;22;45272;-75
2023/05/23 09:49:17;;;;;;;;;10.00;7.00;;;;;24.71;34.52;102207.91;6304971;22;45174;-76
2023/05/23 09:51:43;;;;;;;;;5.33;5.33;;;;;24.71;34.11;102205.25;6304669;22;45210;-74
2023/05/23 09:54:09;;;;;;;;;4.67;4.67;;;;;24.72;33.84;102188.31;6304819;22;45303;-76
2023/05/23 09:56:40;;;;;;;;;6.00;5.00;;;;;24.71;34.26;102187.47;6305501;22;45313;-75
2023/05/23 09:59:07;;;;;;;;;5.33;4.00;;;;;24.71;34.10;102190.13;6305350;22;45191;-76
2023/05/23 10:01:33;;;;;;;;;6.33;4.00;;;;;24.71;34.11;102203.44;6304757;22;47190;-76
2023/05/23 10:04:01;;;;;;;;;6.33;4.33;;;;;24.62;34.31;102183.13;6305118;22;45316;-75
2023/05/23 10:06:42;;;;;;;;;4.00;4.00;;;;;24.61;33.95;102182.31;6305052;22;45366;-75
2023/05/23 10:09:16;;;;;;;;;4.33;3.33;;;;;24.67;34.03;102193.28;6304849;22;45314;-75
2023/05/23 10:12:15;;;;;;;;;4.33;4.33;;;;;24.70;34.08;102177.81;6304417;22;46472;-76
2023/05/23 10:14:48;;;;;;;;;4.00;4.00;;;;;24.68;34.27;102173.66;6304572;22;45320;-76
2023/05/23 10:17:20;;;;;;;;;5.00;5.00;;;;;24.71;34.22;102181.31;6304757;22;45240;-75
2023/05/23 10:19:56;;;;;;;;;4.67;4.67;;;;;24.69;33.99;102181.47;6304334;22;45415;-75
2023/05/23 10:22:23;;;;;;;;;4.00;4.00;;;;;24.70;34.17;102184.94;6304507;22;46311;-75
2023/05/23 10:24:49;;;;;;;;;6.00;2.33;;;;;24.60;33.79;102163.84;6302893;22;46073;-75
2023/05/23 10:27:14;;;;;;;;;5.33;3.00;;;;;24.69;34.00;102188.63;6304711;22;45284;-75
2023/05/23 10:29:40;;;;;;;;;5.67;5.67;;;;;24.56;33.82;102159.84;6304639;22;45288;-76
2023/05/23 10:32:06;;;;;;;;;4.00;4.00;;;;;24.52;34.01;102148.69;6305079;22;45948;-76
2023/05/23 10:34:46;;;;;;;;;4.00;4.00;;;;;24.66;34.06;102167.66;6304460;22;45403;-75
2023/05/23 10:37:26;;;;;;;;;4.67;3.33;;;;;24.65;34.16;102176.63;6304605;22;45263;-76
2023/05/23 10:40:16;;;;;;;;;4.00;4.00;;;;;24.56;34.05;102170.50;6304724;22;45266;-76
2023/05/23 10:42:53;;;;;;;;;4.00;3.00;;;;;24.56;34.19;102167.84;6304857;22;45388;-75
2023/05/23 10:45:25;;;;;;;;;4.00;4.00;;;;;24.65;34.00;102179.28;6304404;22;45345;-76
2023/05/23 10:47:52;;;;;;;;;5.00;5.00;;;;;24.60;34.08;102169.16;6304574;22;45273;-75
2023/05/23 10:50:35;;;;;;;;;3.67;3.67;;;;;24.59;34.27;102170.16;6304170;22;45413;-75
2023/05/23 10:53:03;;;;;;;;;4.00;3.33;;;;;24.64;34.21;102186.47;6304310;22;46098;-75
2023/05/23 10:55:33;;;;;;;;;3.00;3.00;;;;;24.56;34.34;102168.66;6304467;22;45900;-75
2023/05/23 10:58:20;;;;;;;;;2.67;2.33;;;;;24.58;34.39;102163.19;6305062;22;45269;-76
2023/05/23 11:00:53;;;;;;;;;5.67;4.00;;;;;24.65;34.45;102168.66;6304713;22;45403;-75
2023/05/23 11:03:32;;;;;;;;;4.67;3.00;;;;;24.64;34.33;102181.16;6303761;22;47090;-75
2023/05/23 11:05:58;;;;;;;;;6.00;4.00;;;;;24.65;34.75;102181.97;6304496;22;45332;-76
2023/05/23 11:08:23;;;;;;;;;3.00;3.00;;;;;24.65;34.40;102187.28;6304696;22;45344;-75
2023/05/23 11:10:58;;;;;;;;;3.33;3.33;;;;;24.65;34.44;102188.13;6304581;22;45384;-75
2023/05/23 11:13:24;;;;;;;;;4.67;4.67;;;;;24.62;34.55;102178.63;6304326;22;47131;-75
2023/05/23 11:15:50;;;;;;;;;6.00;5.00;;;;;24.66;34.43;102183.63;6304206;22;45308;-76
2023/05/23 11:18:20;;;;;;;;;5.67;2.33;;;;;24.63;34.14;102171.50;6302617;22;45293;-75
2023/05/23 11:20:46;;;;;;;;;4.33;4.33;;;;;24.66;34.44;102180.97;6304853;22;45235;-76
2023/05/23 11:23:12;;;;;;;;;5.00;2.67;;;;;24.62;34.29;102169.81;6304910;22;46112;-76